Time;durP1;ratioP1;P1;durP2;ratioP2;P2;SDS_P1;SDS_P2;PMS_P1;PMS_P2;Temp;Humidity;BMP_temperature;BMP_pressure;BME280_temperature;BME280_humidity;BME280_pressure;Samples;Min_cycle;Max_cycle;Signal;HPM_P1;HPM_P2
2024/01/07 00:02:13;;;;;;;;;;;7.40;99.90;;;;;;5033819;28;20015;-76
2024/01/07 00:04:40;;;;;;;;;;;7.40;99.90;;;;;;5033495;28;19913;-77
2024/01/07 00:07:05;;;;;;;;;;;7.30;99.90;;;;;;5033839;28;19956;-77
2024/01/07 00:09:31;;;;;;;;;;;7.40;99.90;;;;;;5033939;28;19961;-76
2024/01/07 00:11:56;;;;;;;;;;;7.40;99.90;;;;;;5035510;28;20392;-76
2024/01/07 00:14:22;;;;;;;;;;;7.40;99.90;;;;;;5033638;28;19905;-77
2024/01/07 00:16:47;;;;;;;;;;;7.40;99.90;;;;;;5035118;28;20369;-76
2024/01/07 00:19:13;;;;;;;;;;;7.40;99.90;;;;;;5035789;28;20000;-76
2024/01/07 00:21:38;;;;;;;;;;;7.50;99.90;;;;;;5034046;28;20290;-76
2024/01/07 00:24:04;;;;;;;;;;;7.40;99.90;;;;;;5034478;28;20500;-77
2024/01/07 00:26:30;;;;;;;;;;;7.40;99.90;;;;;;5051245;28;20391;-77
2024/01/07 00:28:55;;;;;;;;;;;7.40;99.90;;;;;;5051330;28;19905;-76
2024/01/07 00:31:21;;;;;;;;;;;7.40;99.90;;;;;;5052573;28;20003;-77
2024/01/07 00:33:46;;;;;;;;;;;7.40;99.90;;;;;;5053592;28;20004;-76
2024/01/07 00:36:11;;;;;;;;;;;7.50;99.90;;;;;;5035043;28;19909;-76
2024/01/07 00:38:37;;;;;;;;;;;7.40;99.90;;;;;;5052188;28;20397;-76
2024/01/07 00:41:03;;;;;;;;;;;7.40;99.90;;;;;;5053371;28;19905;-77
2024/01/07 00:43:28;;;;;;;;;;;7.50;99.90;;;;;;5053177;28;19916;-77
2024/01/07 00:45:54;;;;;;;;;;;7.40;99.90;;;;;;5034731;28;19919;-77
2024/01/07 00:48:19;;;;;;;;;;;7.50;99.90;;;;;;5035015;28;19912;-77
2024/01/07 00:50:45;;;;;;;;;;;7.60;99.90;;;;;;5052951;28;19904;-75
2024/01/07 00:53:10;;;;;;;;;;;7.50;99.90;;;;;;5035223;28;19909;-78
2024/01/07 00:55:36;;;;;;;;;;;7.50;99.90;;;;;;5052589;28;19912;-76
2024/01/07 00:58:02;;;;;;;;;;;7.50;99.90;;;;;;5051392;28;19958;-76
2024/01/07 01:00:28;;;;;;;;;;;7.50;99.90;;;;;;5035203;28;19912;-77
2024/01/07 01:02:54;;;;;;;;;;;7.50;99.90;;;;;;5053321;28;19909;-76
2024/01/07 01:05:19;;;;;;;;;;;7.50;99.90;;;;;;5034979;28;19921;-77
2024/01/07 01:07:45;;;;;;;;;;;7.50;99.90;;;;;;5034982;28;19913;-76
2024/01/07 01:10:10;;;;;;;;;;;7.60;99.90;;;;;;5052515;28;19909;-76
2024/01/07 01:12:36;;;;;;;;;;;7.50;99.90;;;;;;5052909;28;19905;-76
2024/01/07 01:15:02;;;;;;;;;;;7.60;99.90;;;;;;5034613;28;19909;-77
2024/01/07 01:17:27;;;;;;;;;;;7.60;99.90;;;;;;5034674;28;19905;-77
2024/01/07 01:19:53;;;;;;;;;;;7.60;99.90;;;;;;5052449;28;20280;-76
2024/01/07 01:22:18;;;;;;;;;;;7.60;99.90;;;;;;5034890;28;19905;-77
2024/01/07 01:24:45;;;;;;;;;;;7.60;99.90;;;;;;5034810;28;20013;-76
2024/01/07 01:27:15;;;;;;;;;;;7.60;99.90;;;;;;5052880;28;19915;-76
2024/01/07 01:29:40;;;;;;;;;;;7.60;99.90;;;;;;5034511;28;19904;-77
2024/01/07 01:32:06;;;;;;;;;;;7.60;99.90;;;;;;5035194;28;19928;-77
2024/01/07 01:34:32;;;;;;;;;;;7.60;99.90;;;;;;5052828;28;19967;-76
2024/01/07 01:36:57;;;;;;;;;;;7.60;99.90;;;;;;5034902;28;19962;-77
2024/01/07 01:39:23;;;;;;;;;;;7.60;99.90;;;;;;5035329;28;19909;-77
2024/01/07 01:41:48;;;;;;;;;;;7.50;99.90;;;;;;5053430;28;19904;-77
2024/01/07 01:44:14;;;;;;;;;;;7.50;99.90;;;;;;5034572;28;19978;-76
2024/01/07 01:46:39;;;;;;;;;;;7.50;99.90;;;;;;5052853;28;19912;-76
2024/01/07 01:49:06;;;;;;;;;;;7.40;99.90;;;;;;5055026;28;20333;-76
2024/01/07 01:51:32;;;;;;;;;;;7.50;99.90;;;;;;5059736;28;20050;-77
2024/01/07 01:53:58;;;;;;;;;;;7.40;99.90;;;;;;5041519;28;19944;-77
2024/01/07 01:56:25;;;;;;;;;;;7.40;99.90;;;;;;5059602;28;19909;-76
2024/01/07 01:58:51;;;;;;;;;;;7.50;99.90;;;;;;5059938;28;19919;-77
2024/01/07 02:01:16;;;;;;;;;;;7.40;99.90;;;;;;5041780;28;19904;-77
2024/01/07 02:03:42;;;;;;;;;;;7.40;99.90;;;;;;5041803;28;20357;-76
2024/01/07 02:06:08;;;;;;;;;;;7.40;99.90;;;;;;5041536;28;19913;-76
2024/01/07 02:08:34;;;;;;;;;;;7.40;99.90;;;;;;5041869;28;19931;-77
2024/01/07 02:11:13;;;;;;;;;;;7.40;99.90;;;;;;5042145;28;20482;-76
2024/01/07 02:13:39;;;;;;;;;;;7.40;99.90;;;;;;5060084;28;20358;-76
2024/01/07 02:16:04;;;;;;;;;;;7.30;99.90;;;;;;5042378;28;19966;-77
2024/01/07 02:18:30;;;;;;;;;;;7.40;99.90;;;;;;5041061;28;19912;-77
2024/01/07 02:20:56;;;;;;;;;;;7.40;99.90;;;;;;5059753;28;19905;-76
2024/01/07 02:23:21;;;;;;;;;;;7.40;99.90;;;;;;5042686;28;19999;-77
2024/01/07 02:25:47;;;;;;;;;;;7.30;99.90;;;;;;5042942;28;19919;-77
2024/01/07 02:28:12;;;;;;;;;;;7.30;99.90;;;;;;5061303;28;19915;-77
2024/01/07 02:30:37;;;;;;;;;;;7.30;99.90;;;;;;5060966;28;19904;-77
2024/01/07 02:33:04;;;;;;;;;;;7.40;99.90;;;;;;5042719;28;19916;-77
2024/01/07 02:35:29;;;;;;;;;;;7.30;99.90;;;;;;5042786;28;20440;-77
2024/01/07 02:37:55;;;;;;;;;;;7.40;99.90;;;;;;5061235;28;20010;-77
2024/01/07 02:40:20;;;;;;;;;;;7.50;99.90;;;;;;5042562;28;19905;-78
2024/01/07 02:42:46;;;;;;;;;;;7.40;99.90;;;;;;5043023;28;20266;-77
2024/01/07 02:45:11;;;;;;;;;;;7.40;99.90;;;;;;5043282;28;20383;-77
2024/01/07 02:47:37;;;;;;;;;;;7.40;99.90;;;;;;5064194;28;19912;-77
2024/01/07 02:50:03;;;;;;;;;;;7.40;99.90;;;;;;5047743;28;19936;-78
2024/01/07 02:52:28;;;;;;;;;;;7.50;99.90;;;;;;5040624;28;19915;-77
2024/01/07 02:54:54;;;;;;;;;;;7.50;99.90;;;;;;5058202;28;19973;-77
2024/01/07 02:57:19;;;;;;;;;;;7.50;99.90;;;;;;5040211;28;19915;-77
2024/01/07 02:59:45;;;;;;;;;;;7.60;99.90;;;;;;5040376;28;19905;-77
2024/01/07 03:02:10;;;;;;;;;;;7.50;99.90;;;;;;5054290;28;20447;-78
2024/01/07 03:04:36;;;;;;;;;;;7.50;99.90;;;;;;5037297;28;19916;-77
2024/01/07 03:07:01;;;;;;;;;;;7.50;99.90;;;;;;5037462;28;20404;-77
2024/01/07 03:09:27;;;;;;;;;;;7.60;99.90;;;;;;5037117;28;19911;-77
2024/01/07 03:11:54;;;;;;;;;;;7.60;99.90;;;;;;5036817;28;20258;-77
2024/01/07 03:14:21;;;;;;;;;;;7.70;99.90;;;;;;5036998;28;20422;-77
2024/01/07 03:16:46;;;;;;;;;;;7.60;99.90;;;;;;5037014;28;19908;-77
2024/01/07 03:19:12;;;;;;;;;;;7.60;99.90;;;;;;5055208;28;19905;-78
2024/01/07 03:21:37;;;;;;;;;;;7.70;99.90;;;;;;5036888;28;19905;-78
2024/01/07 03:24:03;;;;;;;;;;;7.60;99.90;;;;;;5036672;28;19905;-77
2024/01/07 03:26:32;;;;;;;;;;;7.70;99.90;;;;;;5055009;28;19924;-77
2024/01/07 03:28:59;;;;;;;;;;;7.70;99.90;;;;;;5055057;28;19904;-77
2024/01/07 03:31:25;;;;;;;;;;;7.70;99.90;;;;;;5037290;28;19904;-78
2024/01/07 03:33:51;;;;;;;;;;;7.70;99.90;;;;;;5036907;28;20293;-77
2024/01/07 03:36:16;;;;;;;;;;;7.70;99.90;;;;;;5036904;28;20464;-77
2024/01/07 03:38:42;;;;;;;;;;;7.70;99.90;;;;;;5055311;28;19905;-79
2024/01/07 03:41:08;;;;;;;;;;;7.70;99.90;;;;;;5056351;28;20255;-78
2024/01/07 03:43:33;;;;;;;;;;;7.70;99.90;;;;;;5038142;28;19904;-78
2024/01/07 03:46:02;;;;;;;;;;;7.70;99.90;;;;;;5038712;28;20451;-77
2024/01/07 03:48:27;;;;;;;;;;;7.70;99.90;;;;;;5038866;28;19966;-78
2024/01/07 03:50:53;;;;;;;;;;;7.70;99.90;;;;;;5038579;28;19909;-78
2024/01/07 03:53:18;;;;;;;;;;;7.70;99.90;;;;;;5037502;28;20455;-77
2024/01/07 03:55:44;;;;;;;;;;;7.70;99.90;;;;;;5055589;28;20355;-78
2024/01/07 03:58:09;;;;;;;;;;;7.70;99.90;;;;;;5057263;28;19947;-78
2024/01/07 04:00:36;;;;;;;;;;;7.60;99.90;;;;;;5038512;28;19948;-78
2024/01/07 04:03:02;;;;;;;;;;;7.50;99.90;;;;;;5057122;28;19958;-78
2024/01/07 04:05:29;;;;;;;;;;;7.50;99.90;;;;;;5037552;28;19919;-77
2024/01/07 04:07:54;;;;;;;;;;;7.40;99.90;;;;;;5037823;28;20456;-78
2024/01/07 04:10:20;;;;;;;;;;;7.50;99.90;;;;;;5037413;28;19908;-78
2024/01/07 04:12:45;;;;;;;;;;;7.50;99.90;;;;;;5037408;28;19997;-77
2024/01/07 04:15:12;;;;;;;;;;;7.60;99.90;;;;;;5056912;28;19913;-78
2024/01/07 04:17:37;;;;;;;;;;;7.40;99.90;;;;;;5039560;28;19909;-78
2024/01/07 04:20:03;;;;;;;;;;;7.40;99.90;;;;;;5039678;28;20376;-78
2024/01/07 04:22:28;;;;;;;;;;;7.40;99.90;;;;;;5039571;28;19948;-79
2024/01/07 04:24:54;;;;;;;;;;;7.40;99.90;;;;;;5056035;28;19960;-77
2024/01/07 04:27:20;;;;;;;;;;;7.40;99.90;;;;;;5037859;28;19950;-77
2024/01/07 04:29:45;;;;;;;;;;;7.40;99.90;;;;;;5038314;28;20309;-78
2024/01/07 04:32:12;;;;;;;;;;;7.40;99.90;;;;;;5038896;28;19910;-78
2024/01/07 04:34:37;;;;;;;;;;;7.40;99.90;;;;;;5036396;28;19920;-77
2024/01/07 04:37:03;;;;;;;;;;;7.40;99.90;;;;;;5038740;28;20277;-77
2024/01/07 04:39:29;;;;;;;;;;;7.30;99.90;;;;;;5039201;28;19909;-78
2024/01/07 04:41:55;;;;;;;;;;;7.30;99.90;;;;;;5039538;28;19909;-78
2024/01/07 04:44:23;;;;;;;;;;;7.30;99.90;;;;;;5038909;28;20253;-78
2024/01/07 04:46:49;;;;;;;;;;;7.30;99.90;;;;;;5057140;28;19912;-78
2024/01/07 04:49:15;;;;;;;;;;;7.30;99.90;;;;;;5038674;28;19964;-77
2024/01/07 04:51:40;;;;;;;;;;;7.40;99.90;;;;;;5038467;28;20003;-77
2024/01/07 04:54:06;;;;;;;;;;;7.30;99.90;;;;;;5038243;28;19908;-77
2024/01/07 04:56:32;;;;;;;;;;;7.30;99.90;;;;;;5055920;28;20391;-77
2024/01/07 04:58:57;;;;;;;;;;;7.40;99.90;;;;;;5038894;28;19905;-76
2024/01/07 05:01:23;;;;;;;;;;;7.50;99.90;;;;;;5038616;28;19944;-77
2024/01/07 05:03:48;;;;;;;;;;;7.50;99.90;;;;;;5058734;28;20012;-77
2024/01/07 05:06:14;;;;;;;;;;;7.60;99.90;;;;;;5036279;28;20331;-77
2024/01/07 05:08:41;;;;;;;;;;;7.50;99.90;;;;;;5035924;28;19956;-78
2024/01/07 05:11:06;;;;;;;;;;;7.60;99.90;;;;;;5035361;28;19955;-76
2024/01/07 05:13:32;;;;;;;;;;;7.60;99.90;;;;;;5035360;28;19963;-77
2024/01/07 05:15:57;;;;;;;;;;;7.60;99.90;;;;;;5053872;28;19908;-78
2024/01/07 05:18:23;;;;;;;;;;;7.50;99.90;;;;;;5035756;28;19954;-77
2024/01/07 05:20:49;;;;;;;;;;;7.60;99.90;;;;;;5035487;28;20518;-77
2024/01/07 05:23:15;;;;;;;;;;;7.80;99.90;;;;;;5053570;28;19992;-78
2024/01/07 05:25:42;;;;;;;;;;;7.70;99.90;;;;;;5034832;28;19923;-77
2024/01/07 05:28:07;;;;;;;;;;;7.70;99.90;;;;;;5035203;28;19912;-77
2024/01/07 05:30:33;;;;;;;;;;;7.60;99.90;;;;;;5053195;28;19905;-77
2024/01/07 05:32:58;;;;;;;;;;;7.70;99.90;;;;;;5035408;28;19909;-77
2024/01/07 05:35:24;;;;;;;;;;;7.70;99.90;;;;;;5034690;28;20355;-77
2024/01/07 05:37:49;;;;;;;;;;;7.80;99.90;;;;;;5035371;28;20277;-77
2024/01/07 05:40:15;;;;;;;;;;;7.80;99.90;;;;;;5035325;28;20016;-77
2024/01/07 05:42:40;;;;;;;;;;;7.80;99.90;;;;;;5035457;28;19955;-77
2024/01/07 05:45:06;;;;;;;;;;;7.90;99.90;;;;;;5035031;28;19908;-76
2024/01/07 05:47:32;;;;;;;;;;;7.90;99.90;;;;;;5035008;28;19909;-76
2024/01/07 05:49:57;;;;;;;;;;;7.90;99.90;;;;;;5052899;28;19912;-77
2024/01/07 05:52:23;;;;;;;;;;;8.00;99.90;;;;;;5053212;28;19916;-77
2024/01/07 05:54:48;;;;;;;;;;;8.00;99.90;;;;;;5053221;28;19904;-77
2024/01/07 05:57:14;;;;;;;;;;;8.00;99.90;;;;;;5034746;28;20351;-77
2024/01/07 05:59:39;;;;;;;;;;;7.90;99.90;;;;;;5053197;28;20387;-76
2024/01/07 06:02:05;;;;;;;;;;;7.90;99.90;;;;;;5054769;28;20443;-82
2024/01/07 06:04:30;;;;;;;;;;;7.90;99.90;;;;;;5053257;28;20003;-77
2024/01/07 06:06:56;;;;;;;;;;;7.90;99.90;;;;;;5035208;28;19955;-77
2024/01/07 06:09:21;;;;;;;;;;;8.00;99.90;;;;;;5035034;28;19944;-78
2024/01/07 06:11:47;;;;;;;;;;;8.00;99.90;;;;;;5052778;28;19909;-77
2024/01/07 06:14:12;;;;;;;;;;;8.00;99.90;;;;;;5035248;28;19956;-77
2024/01/07 06:16:38;;;;;;;;;;;7.90;99.90;;;;;;5053314;28;19962;-77
2024/01/07 06:19:03;;;;;;;;;;;7.80;99.90;;;;;;5053813;28;20424;-77
2024/01/07 06:21:29;;;;;;;;;;;7.80;99.90;;;;;;5035416;28;20377;-77
2024/01/07 06:23:54;;;;;;;;;;;7.80;99.90;;;;;;5053252;28;19912;-77
2024/01/07 06:26:20;;;;;;;;;;;7.80;99.90;;;;;;5034891;28;19998;-77
2024/01/07 06:28:45;;;;;;;;;;;7.80;99.90;;;;;;5053470;28;19932;-77
2024/01/07 06:31:11;;;;;;;;;;;7.70;99.90;;;;;;5054863;28;19912;-77
2024/01/07 06:33:36;;;;;;;;;;;7.60;99.90;;;;;;5055093;28;19904;-77
2024/01/07 06:36:02;;;;;;;;;;;7.60;99.90;;;;;;5073873;28;20269;-77
2024/01/07 06:38:28;;;;;;;;;;;7.60;99.90;;;;;;5077425;28;19911;-77
2024/01/07 06:41:00;;;;;;;;;;;7.60;99.90;;;;;;5059148;28;19905;-77
2024/01/07 06:43:27;;;;;;;;;;;7.50;99.90;;;;;;5059154;28;19905;-76
2024/01/07 06:45:53;;;;;;;;;;;7.50;99.90;;;;;;5059116;28;20356;-77
2024/01/07 06:48:19;;;;;;;;;;;7.50;99.90;;;;;;5052592;28;19904;-76
2024/01/07 06:50:44;;;;;;;;;;;7.50;99.90;;;;;;5058003;28;19908;-76
2024/01/07 06:53:10;;;;;;;;;;;7.50;99.90;;;;;;5058704;28;19908;-76
2024/01/07 06:55:36;;;;;;;;;;;7.50;99.90;;;;;;5058995;28;19904;-77
2024/01/07 06:58:02;;;;;;;;;;;7.50;99.90;;;;;;5077851;28;19991;-77
2024/01/07 07:00:27;;;;;;;;;;;7.60;99.90;;;;;;5077393;28;20411;-76
2024/01/07 07:02:53;;;;;;;;;;;7.70;99.90;;;;;;5077102;28;20280;-77
2024/01/07 07:05:19;;;;;;;;;;;7.80;99.90;;;;;;5059363;28;19955;-75
2024/01/07 07:07:45;;;;;;;;;;;7.70;99.90;;;;;;5076835;28;20373;-77
2024/01/07 07:10:11;;;;;;;;;;;7.80;99.90;;;;;;5059384;28;19915;-77
2024/01/07 07:12:36;;;;;;;;;;;7.70;99.90;;;;;;5055193;28;19913;-76
2024/01/07 07:15:02;;;;;;;;;;;7.70;99.90;;;;;;5059257;28;19911;-77
2024/01/07 07:17:27;;;;;;;;;;;7.60;99.90;;;;;;5078129;28;19931;-76
2024/01/07 07:19:53;;;;;;;;;;;7.60;99.90;;;;;;5070634;28;19910;-77
2024/01/07 07:22:18;;;;;;;;;;;7.70;99.90;;;;;;5064211;28;19908;-77
2024/01/07 07:24:44;;;;;;;;;;;7.60;99.90;;;;;;5059250;28;19912;-77
2024/01/07 07:27:09;;;;;;;;;;;7.50;99.90;;;;;;5076844;28;20321;-77
2024/01/07 07:29:35;;;;;;;;;;;7.50;99.90;;;;;;5077083;28;20411;-77
2024/01/07 07:32:00;;;;;;;;;;;7.50;99.90;;;;;;5077050;28;19954;-77
2024/01/07 07:34:26;;;;;;;;;;;7.60;99.90;;;;;;5059083;28;19912;-76
2024/01/07 07:36:52;;;;;;;;;;;7.60;99.90;;;;;;5076763;28;19924;-77
2024/01/07 07:39:18;;;;;;;;;;;7.50;99.90;;;;;;5059510;28;20392;-77
2024/01/07 07:41:43;;;;;;;;;;;7.50;99.90;;;;;;5077135;28;20349;-77
2024/01/07 07:44:09;;;;;;;;;;;7.50;99.90;;;;;;5072859;28;20325;-76
2024/01/07 07:46:35;;;;;;;;;;;7.50;99.90;;;;;;5049608;28;20006;-77
2024/01/07 07:49:01;;;;;;;;;;;7.50;99.90;;;;;;5057654;28;20277;-77
2024/01/07 07:51:30;;;;;;;;;;;7.50;99.90;;;;;;5074971;28;19962;-76
2024/01/07 07:53:57;;;;;;;;;;;7.50;99.90;;;;;;5055571;28;19979;-76
2024/01/07 07:56:23;;;;;;;;;;;7.50;99.90;;;;;;5055586;28;19908;-76
2024/01/07 07:58:50;;;;;;;;;;;7.50;99.90;;;;;;5073829;28;19946;-76
2024/01/07 08:01:18;;;;;;;;;;;7.50;99.90;;;;;;5054280;28;19909;-76
2024/01/07 08:03:44;;;;;;;;;;;7.50;99.90;;;;;;5055521;28;20368;-76
2024/01/07 08:06:12;;;;;;;;;;;7.60;99.90;;;;;;5055787;28;19923;-76
2024/01/07 08:08:40;;;;;;;;;;;7.60;99.90;;;;;;5072961;28;19940;-75
2024/01/07 08:11:09;;;;;;;;;;;7.60;99.90;;;;;;5074628;28;19908;-77
2024/01/07 08:13:35;;;;;;;;;;;7.50;99.90;;;;;;5075165;28;19998;-76
2024/01/07 08:16:00;;;;;;;;;;;7.60;99.90;;;;;;5075144;28;19943;-77
2024/01/07 08:18:26;;;;;;;;;;;7.50;99.90;;;;;;5074524;28;20284;-77
2024/01/07 08:20:51;;;;;;;;;;;7.50;99.90;;;;;;5056955;28;19904;-76
2024/01/07 08:23:17;;;;;;;;;;;7.50;99.90;;;;;;5075033;28;19908;-77
2024/01/07 08:25:44;;;;;;;;;;;7.50;99.90;;;;;;5055970;28;19912;-76
2024/01/07 08:28:10;;;;;;;;;;;7.50;99.90;;;;;;5056302;28;19908;-77
2024/01/07 08:30:35;;;;;;;;;;;7.50;99.90;;;;;;5074025;28;19966;-77
2024/01/07 08:33:01;;;;;;;;;;;7.50;99.90;;;;;;5074529;28;20317;-76
2024/01/07 08:35:27;;;;;;;;;;;7.50;99.90;;;;;;5074194;28;19973;-77
2024/01/07 08:37:52;;;;;;;;;;;7.50;99.90;;;;;;5056700;28;19908;-76
2024/01/07 08:40:18;;;;;;;;;;;7.50;99.90;;;;;;5056931;28;19912;-77
2024/01/07 08:42:44;;;;;;;;;;;7.40;99.90;;;;;;5074693;28;19948;-77
2024/01/07 08:45:11;;;;;;;;;;;7.40;99.90;;;;;;5056626;28;20397;-77
2024/01/07 08:47:36;;;;;;;;;;;7.50;99.90;;;;;;5057215;28;19958;-76
2024/01/07 08:50:03;;;;;;;;;;;7.50;99.90;;;;;;5056727;28;19927;-77
2024/01/07 08:52:28;;;;;;;;;;;7.50;99.90;;;;;;5055281;28;19911;-76
2024/01/07 08:54:55;;;;;;;;;;;7.40;99.90;;;;;;5056509;28;19908;-76
2024/01/07 08:57:20;;;;;;;;;;;7.50;99.90;;;;;;5056460;28;20422;-76
2024/01/07 08:59:46;;;;;;;;;;;7.60;99.90;;;;;;5056060;28;19912;-76
2024/01/07 09:02:11;;;;;;;;;;;7.50;99.90;;;;;;5057513;28;19931;-76
2024/01/07 09:04:37;;;;;;;;;;;7.50;99.90;;;;;;5059721;28;19931;-76
2024/01/07 09:07:03;;;;;;;;;;;7.50;99.90;;;;;;5077976;28;19969;-76
2024/01/07 09:09:29;;;;;;;;;;;7.50;99.90;;;;;;5059818;28;19999;-77
2024/01/07 09:11:56;;;;;;;;;;;7.50;99.90;;;;;;5059966;28;20006;-76
2024/01/07 09:14:22;;;;;;;;;;;7.50;99.90;;;;;;5077389;28;19908;-75
2024/01/07 09:16:47;;;;;;;;;;;7.50;99.90;;;;;;5060243;28;20388;-76
2024/01/07 09:19:13;;;;;;;;;;;7.60;99.90;;;;;;5060472;28;19930;-76
2024/01/07 09:21:38;;;;;;;;;;;7.50;99.90;;;;;;5059232;28;20258;-75
2024/01/07 09:24:04;;;;;;;;;;;7.50;99.90;;;;;;5077501;28;19911;-76
2024/01/07 09:26:30;;;;;;;;;;;7.50;99.90;;;;;;5060836;28;20255;-76
2024/01/07 09:28:56;;;;;;;;;;;7.50;99.90;;;;;;5078684;28;19904;-76
2024/01/07 09:31:21;;;;;;;;;;;7.50;99.90;;;;;;5061012;28;19909;-76
2024/01/07 09:33:47;;;;;;;;;;;7.50;99.90;;;;;;5060732;28;19943;-77
2024/01/07 09:36:12;;;;;;;;;;;7.50;99.90;;;;;;5077358;28;19917;-76
2024/01/07 09:38:38;;;;;;;;;;;7.50;99.90;;;;;;5078661;28;20361;-77
2024/01/07 09:41:04;;;;;;;;;;;7.60;99.90;;;;;;5074011;28;19916;-76
2024/01/07 09:43:30;;;;;;;;;;;7.60;99.90;;;;;;5054991;28;19911;-75
2024/01/07 09:45:56;;;;;;;;;;;7.70;99.90;;;;;;5054712;28;19912;-76
2024/01/07 09:48:21;;;;;;;;;;;7.70;99.90;;;;;;5072965;28;19928;-76
2024/01/07 09:50:47;;;;;;;;;;;7.70;99.90;;;;;;5073152;28;20360;-76
2024/01/07 09:53:18;;;;;;;;;;;7.70;99.90;;;;;;5055327;28;19908;-75
2024/01/07 09:55:51;;;;;;;;;;;7.70;99.90;;;;;;5073766;28;20377;-77
2024/01/07 09:58:16;;;;;;;;;;;7.70;99.90;;;;;;5054971;28;19933;-76
2024/01/07 10:00:42;;;;;;;;;;;7.70;99.90;;;;;;5072998;28;19999;-76
2024/01/07 10:03:07;;;;;;;;;;;7.70;99.90;;;;;;5055107;28;19904;-76
2024/01/07 10:05:33;;;;;;;;;;;7.70;99.90;;;;;;5055356;28;20385;-76
2024/01/07 10:07:59;;;;;;;;;;;7.80;99.90;;;;;;5073148;28;19908;-76
2024/01/07 10:10:24;;;;;;;;;;;7.80;99.90;;;;;;5075314;28;19987;-76
2024/01/07 10:12:52;;;;;;;;;;;7.80;99.90;;;;;;5059636;28;19904;-76
2024/01/07 10:15:18;;;;;;;;;;;7.80;99.90;;;;;;5059963;28;19905;-77
2024/01/07 10:17:45;;;;;;;;;;;7.80;99.90;;;;;;5078323;28;19931;-77
2024/01/07 10:20:11;;;;;;;;;;;7.80;99.90;;;;;;5077981;28;19943;-76
2024/01/07 10:22:37;;;;;;;;;;;7.70;99.90;;;;;;5078355;28;19904;-76
2024/01/07 10:25:03;;;;;;;;;;;7.70;99.90;;;;;;5059822;28;19908;-76
2024/01/07 10:27:29;;;;;;;;;;;7.80;99.90;;;;;;5078330;28;19916;-76
2024/01/07 10:29:58;;;;;;;;;;;7.80;99.90;;;;;;5077935;28;20435;-76
2024/01/07 10:32:23;;;;;;;;;;;7.70;99.90;;;;;;5078501;28;19904;-77
2024/01/07 10:34:50;;;;;;;;;;;7.70;99.90;;;;;;5077940;28;19920;-76
2024/01/07 10:37:16;;;;;;;;;;;7.90;99.90;;;;;;5078532;28;19930;-76
2024/01/07 10:39:41;;;;;;;;;;;7.80;99.90;;;;;;5059766;28;19947;-76
2024/01/07 10:42:07;;;;;;;;;;;7.80;99.90;;;;;;5060243;28;19905;-76
2024/01/07 10:44:33;;;;;;;;;;;7.80;99.90;;;;;;5078042;28;19905;-75
2024/01/07 10:46:59;;;;;;;;;;;7.80;99.90;;;;;;5059841;28;20011;-75
2024/01/07 10:49:26;;;;;;;;;;;7.80;99.90;;;;;;5078105;28;19975;-76
2024/01/07 10:52:05;;;;;;;;;;;7.80;99.90;;;;;;5059928;28;19934;-76
2024/01/07 10:54:33;;;;;;;;;;;7.80;99.90;;;;;;5077812;28;19905;-76
2024/01/07 10:56:59;;;;;;;;;;;7.70;99.90;;;;;;5058828;28;20356;-76
2024/01/07 10:59:26;;;;;;;;;;;7.80;99.90;;;;;;5077995;28;19943;-76
2024/01/07 11:01:51;;;;;;;;;;;7.70;99.90;;;;;;5059555;28;19915;-76
2024/01/07 11:04:17;;;;;;;;;;;7.70;99.90;;;;;;5077405;28;19904;-77
2024/01/07 11:06:52;;;;;;;;;;;7.70;99.90;;;;;;5058606;28;20549;-75
2024/01/07 11:09:26;;;;;;;;;;;7.70;99.90;;;;;;5076490;28;20369;-77
2024/01/07 11:11:52;;;;;;;;;;;7.70;99.90;;;;;;5058510;28;19915;-76
2024/01/07 11:14:39;;;;;;;;;;;7.70;99.90;;;;;;5076001;28;19909;-76
2024/01/07 11:17:05;;;;;;;;;;;7.70;99.90;;;;;;5058812;28;20393;-76
2024/01/07 11:19:31;;;;;;;;;;;7.70;99.90;;;;;;5059355;28;19915;-77
2024/01/07 11:22:15;;;;;;;;;;;7.70;99.90;;;;;;5077826;28;20383;-75
2024/01/07 11:24:42;;;;;;;;;;;7.70;99.90;;;;;;5078436;28;19915;-75
2024/01/07 11:27:10;;;;;;;;;;;7.60;99.90;;;;;;5060823;28;19904;-77
2024/01/07 11:29:36;;;;;;;;;;;7.60;99.90;;;;;;5061053;28;20010;-76
2024/01/07 11:32:02;;;;;;;;;;;7.60;99.90;;;;;;5061321;28;19955;-76
2024/01/07 11:34:41;;;;;;;;;;;7.60;99.90;;;;;;5078873;28;19942;-75
2024/01/07 11:37:07;;;;;;;;;;;7.60;99.90;;;;;;5061454;28;19909;-77
2024/01/07 11:39:35;;;;;;;;;;;7.60;99.90;;;;;;5079755;28;19904;-76
2024/01/07 11:42:02;;;;;;;;;;;7.60;99.90;;;;;;5061926;28;19912;-76
2024/01/07 11:44:27;;;;;;;;;;;7.60;99.90;;;;;;5061178;28;19915;-75
2024/01/07 11:46:53;;;;;;;;;;;7.70;99.90;;;;;;5061929;28;19908;-77
2024/01/07 11:49:18;;;;;;;;;;;7.60;99.90;;;;;;5062634;28;19908;-78
2024/01/07 11:51:45;;;;;;;;;;;7.70;99.90;;;;;;5078910;28;19904;-76
2024/01/07 11:54:11;;;;;;;;;;;7.70;99.90;;;;;;5058669;28;19908;-75
2024/01/07 11:56:37;;;;;;;;;;;7.70;99.90;;;;;;5058128;28;19908;-75
2024/01/07 11:59:03;;;;;;;;;;;7.60;99.90;;;;;;5058423;28;19931;-76
2024/01/07 12:01:29;;;;;;;;;;;7.70;99.90;;;;;;5058701;28;20479;-76
2024/01/07 12:03:54;;;;;;;;;;;7.60;99.90;;;;;;5076827;28;19909;-76
2024/01/07 12:06:20;;;;;;;;;;;7.70;99.90;;;;;;5076522;28;19916;-76
2024/01/07 12:08:46;;;;;;;;;;;7.80;99.90;;;;;;5076712;28;20003;-77
2024/01/07 12:11:12;;;;;;;;;;;7.70;99.90;;;;;;5058342;28;19943;-76
2024/01/07 12:13:38;;;;;;;;;;;7.70;99.90;;;;;;5077486;28;19914;-76
2024/01/07 12:16:07;;;;;;;;;;;7.80;99.90;;;;;;5077019;28;20417;-76
2024/01/07 12:18:32;;;;;;;;;;;7.70;99.90;;;;;;5058803;28;19904;-76
2024/01/07 12:20:59;;;;;;;;;;;7.70;99.90;;;;;;5058404;28;19908;-76
2024/01/07 12:23:25;;;;;;;;;;;7.70;99.90;;;;;;5059401;28;19928;-76
2024/01/07 12:25:51;;;;;;;;;;;7.60;99.90;;;;;;5041798;28;20027;-76
2024/01/07 12:28:18;;;;;;;;;;;7.50;99.90;;;;;;5058491;28;19909;-76
2024/01/07 12:30:44;;;;;;;;;;;7.60;99.90;;;;;;5077070;28;19912;-75
2024/01/07 12:33:10;;;;;;;;;;;7.60;99.90;;;;;;5076854;28;19904;-76
2024/01/07 12:35:35;;;;;;;;;;;7.70;99.90;;;;;;5056284;28;19916;-76
2024/01/07 12:38:01;;;;;;;;;;;7.70;99.90;;;;;;5074529;28;19960;-76
2024/01/07 12:40:27;;;;;;;;;;;7.70;99.90;;;;;;5074505;28;20485;-76
2024/01/07 12:42:53;;;;;;;;;;;7.80;99.90;;;;;;5056580;28;19904;-76
2024/01/07 12:45:19;;;;;;;;;;;7.70;99.90;;;;;;5056715;28;19908;-77
2024/01/07 12:47:45;;;;;;;;;;;7.70;99.90;;;;;;5074017;28;19932;-76
2024/01/07 12:50:11;;;;;;;;;;;7.70;99.90;;;;;;5057064;28;19919;-75
2024/01/07 12:52:40;;;;;;;;;;;7.80;99.90;;;;;;5056592;28;19915;-75
2024/01/07 12:55:06;;;;;;;;;;;7.70;99.90;;;;;;5056538;28;19912;-76
2024/01/07 12:57:32;;;;;;;;;;;7.80;99.90;;;;;;5075157;28;19911;-77
2024/01/07 12:59:57;;;;;;;;;;;7.80;99.90;;;;;;5074690;28;19991;-77
2024/01/07 13:02:23;;;;;;;;;;;7.70;99.90;;;;;;5075208;28;19908;-76
2024/01/07 13:04:49;;;;;;;;;;;7.70;99.90;;;;;;5056823;28;20365;-77
2024/01/07 13:07:15;;;;;;;;;;;7.60;99.90;;;;;;5056452;28;19912;-76
2024/01/07 13:09:40;;;;;;;;;;;7.60;99.90;;;;;;5057190;28;19908;-77
2024/01/07 13:12:06;;;;;;;;;;;7.60;99.90;;;;;;5056757;28;19905;-76
2024/01/07 13:14:31;;;;;;;;;;;7.50;99.90;;;;;;5074718;28;19904;-76
2024/01/07 13:16:57;;;;;;;;;;;7.60;99.90;;;;;;5056837;28;19912;-76
2024/01/07 13:19:22;;;;;;;;;;;7.50;99.90;;;;;;5057359;28;19905;-76
2024/01/07 13:21:48;;;;;;;;;;;7.40;99.90;;;;;;5056964;28;19904;-76
2024/01/07 13:24:13;;;;;;;;;;;7.50;99.90;;;;;;5056530;28;19999;-76
2024/01/07 13:26:41;;;;;;;;;;;7.50;99.90;;;;;;5056796;28;19938;-76
2024/01/07 13:29:07;;;;;;;;;;;7.50;99.90;;;;;;5057186;28;20335;-76
2024/01/07 13:31:33;;;;;;;;;;;7.50;99.90;;;;;;5056939;28;19908;-76
2024/01/07 13:33:58;;;;;;;;;;;7.40;99.90;;;;;;5056656;28;19931;-77
2024/01/07 13:36:23;;;;;;;;;;;7.40;99.90;;;;;;5052833;28;19923;-76
2024/01/07 13:38:50;;;;;;;;;;;7.40;99.90;;;;;;5051091;28;20410;-75
2024/01/07 13:41:16;;;;;;;;;;;7.30;99.90;;;;;;5061194;28;19909;-76
2024/01/07 13:43:42;;;;;;;;;;;7.30;99.90;;;;;;5053047;28;20600;-76
2024/01/07 13:46:08;;;;;;;;;;;7.20;99.90;;;;;;5055718;28;19912;-76
2024/01/07 13:48:34;;;;;;;;;;;7.10;99.90;;;;;;5073422;28;20030;-76
2024/01/07 13:51:00;;;;;;;;;;;7.00;99.90;;;;;;5038509;28;20377;-76
2024/01/07 13:53:26;;;;;;;;;;;6.90;99.90;;;;;;5038322;28;19905;-76
2024/01/07 13:55:51;;;;;;;;;;;6.90;99.90;;;;;;5038318;28;19912;-76
2024/01/07 13:58:17;;;;;;;;;;;6.90;99.90;;;;;;5056590;28;20369;-76
2024/01/07 14:00:42;;;;;;;;;;;6.90;99.90;;;;;;5039830;28;20434;-77
2024/01/07 14:03:08;;;;;;;;;;;6.90;99.90;;;;;;5058698;28;19904;-76
2024/01/07 14:05:33;;;;;;;;;;;6.90;99.90;;;;;;5060492;28;19920;-77
2024/01/07 14:07:59;;;;;;;;;;;6.90;99.90;;;;;;5063480;28;19911;-77
2024/01/07 14:10:24;;;;;;;;;;;6.90;99.90;;;;;;5061917;28;20288;-77
2024/01/07 14:12:50;;;;;;;;;;;6.80;99.90;;;;;;5063883;28;20539;-76
2024/01/07 14:15:18;;;;;;;;;;;6.80;99.90;;;;;;5061867;28;19908;-78
2024/01/07 14:17:43;;;;;;;;;;;6.70;99.90;;;;;;5045132;28;19953;-77
2024/01/07 14:20:09;;;;;;;;;;;6.70;99.90;;;;;;5043056;28;19954;-77
2024/01/07 14:22:35;;;;;;;;;;;6.80;99.90;;;;;;5063567;28;19919;-78
2024/01/07 14:25:01;;;;;;;;;;;6.90;99.90;;;;;;5047907;28;20466;-77